Hauppauge, NY (11788)

6:47 PM EDT on July 31, 2015 (GMT -0400)
KNYHAUPP8 | | Change Station
CLOSE
Current Station
Personal Weather Station
Location: Hauppauge, NY
Elevation: 131 ft
Nearby Weather Stations

Elev 131 ft 40.82 °N, 73.26 °W | Updated 13 seconds ago

Clear
Clear
86.0 °F
Feels Like 85 °F
N
6.0
Wind Variable Wind from NNE
Gusts 12.0 mph

Today
High -- | Low -- °F
--% Chance of Precip.
Yesterday
High -- | Low -- °F
Precip. -- in
5:48 AM 8:09 PM
Full, 100% visible
Pressure 29.78 in
Visibility 10.0 miles
Clouds Few 7000 ft
Heat Index 85 °F
Dew Point 58 °F
Humidity 39%
Rainfall 0.02 in
Snow Depth Not available.
UV 2 out of 12
Pollen 5.60 out of 12
Air Quality Not available.
Flu Activity Not available.
METAR KISP 312156Z 31011KT 10SM FEW070 31/12 A2978 RMK AO2 SLP083 T03110122

More Conditions Fewer Conditions

Pressure 29.78 in
Visibility 10.0 miles
Clouds Few 7000 ft
Heat Index 85 °F
Dew Point 58 °F
Humidity 39%
Rainfall 0.02 in
Snow Depth Not available.
UV 2 out of 12
Pollen 5.60 out of 12
Air Quality Not available.
Flu Activity Not available.
METAR KISP 312156Z 31011KT 10SM FEW070 31/12 A2978 RMK AO2 SLP083 T03110122

More Conditions Fewer Conditions

10-Day Weather Forecast

×

Almanac

Astronomy

Jul. 31, 2015 Rise Set
Actual Time
Civil Twilight
Nautical Twilight
Astronomical Twilight
Moon
Length of Visible Light
Length of Day
Tomorrow will be .
, % of the Moon is Illuminated

Today's Extremes

State Highs State Lows

Community

WunderPhotos

Upload Photos

1,842,764 photos uploaded!

WunderBlogs® & News

Nearby

Air Quality

  Air Quality AQ Index Pollutant
Not available.

Snow Depth

Station Depth Elevation

Earthquake Activity

City Distance Mag. Time & Date
Minimum magnitude displayed is 2.5.

Coastal Water Temperatures

Place Temperature

Stations

Nearby Weather Stations

Station Location Temp. Windchill Dew Point Humidity Wind Precip. Elev Updated Type